WMKP/PEN METAR and TAF weather

Enter ICAO airport designator
Station Type Date Time Source
WMKP METAR 2020/03/29 20:30 UTC NOAA

WMKP 292030Z 02004KT 320V060 9000 FEW017CB 28/26 Q1007 NOSIG


Station Type Date Time Source
WMKP Decoded METAR 2020/03/29 20:30 UTC NOAA

Penang / Bayan Lepas, Malaysia (WMKP) 05-18N 100-16E 4M
Mar 29, 2020 - 04:30 PM EDT / 2020.03.29 2030 UTC
Wind: from the NNE (020 degrees) at 5 MPH (4 KT) (direction variable):0
Visibility: 5 mile(s):0
Sky conditions: mostly clear
Weather: Cumulonimbus clouds observed
Temperature: 82 F (28 C)
Dew Point: 78 F (26 C)
Relative Humidity: 88%
Pressure (altimeter): 29.74 in. Hg (1007 hPa)
ob: WMKP 292030Z 02004KT 320V060 9000 FEW017CB 28/26 Q1007 NOSIG
cycle: 20

Station Type Date Time Source
WMKP TAF 2020/03/29 18:09 UTC NOAA

TAF WMKP 291700Z 2918/3018 VRB03KT 8000 FEW025
BECMG 3003/3005 26008KT 9999 FEW020
BECMG 3010/3012 VRB03KT 9000 FEW025 PROB30
TEMPO 3014/3018 6000 -TSRA FEW010 FEW017CB

Example: see airport list